createdAt,value
2023-03-04T00:00:48.183Z,8.10
2023-03-04T00:03:15.879Z,8.10
2023-03-04T00:05:42.879Z,8.10
2023-03-04T00:08:09.829Z,8.10
2023-03-04T00:10:36.695Z,8.00
2023-03-04T00:13:03.660Z,8.00
2023-03-04T00:15:30.829Z,8.00
2023-03-04T00:17:57.966Z,8.10
2023-03-04T00:20:24.999Z,8.10
2023-03-04T00:22:52.159Z,8.10
2023-03-04T00:25:22.068Z,8.20
2023-03-04T00:27:49.023Z,8.20
2023-03-04T00:30:18.621Z,8.20
2023-03-04T00:32:45.505Z,8.20
2023-03-04T00:35:12.507Z,8.20
2023-03-04T00:37:39.400Z,8.20
2023-03-04T00:40:06.886Z,8.10
2023-03-04T00:42:33.815Z,8.10
2023-03-04T00:45:00.752Z,8.10
2023-03-04T00:47:27.765Z,8.10
2023-03-04T00:49:54.835Z,8.10
2023-03-04T00:52:21.796Z,8.20
2023-03-04T00:54:48.777Z,8.10
2023-03-04T00:57:15.887Z,8.20
2023-03-04T00:59:46.060Z,8.20
2023-03-04T01:02:13.147Z,8.20
2023-03-04T01:04:40.139Z,8.10
2023-03-04T01:07:07.088Z,8.10
2023-03-04T01:09:34.039Z,8.00
2023-03-04T01:12:00.937Z,8.00
2023-03-04T01:14:27.965Z,8.00
2023-03-04T01:16:54.957Z,8.00
2023-03-04T01:19:21.885Z,8.00
2023-03-04T01:21:48.990Z,7.90
2023-03-04T01:24:16.068Z,7.90
2023-03-04T01:26:42.983Z,7.90
2023-03-04T01:29:09.995Z,7.90
2023-03-04T01:31:36.939Z,7.90
2023-03-04T01:34:03.879Z,8.00
2023-03-04T01:36:30.866Z,7.90
2023-03-04T01:38:57.823Z,7.90
2023-03-04T01:41:26.121Z,7.80
2023-03-04T01:43:54.890Z,7.70
2023-03-04T01:46:22.131Z,7.70
2023-03-04T01:48:49.385Z,7.80
2023-03-04T01:51:18.132Z,7.80
2023-03-04T01:53:46.570Z,7.80
2023-03-04T01:56:20.080Z,7.80
2023-03-04T01:59:09.511Z,7.80
2023-03-04T02:01:36.984Z,7.80
2023-03-04T02:04:04.189Z,7.80
2023-03-04T02:06:31.473Z,7.80
2023-03-04T02:08:58.567Z,7.80
2023-03-04T02:11:25.575Z,7.90
2023-03-04T02:13:52.916Z,7.90
2023-03-04T02:16:20.019Z,7.90
2023-03-04T02:18:47.287Z,7.90
2023-03-04T02:21:27.882Z,7.90
2023-03-04T02:24:06.751Z,7.80
2023-03-04T02:26:35.372Z,7.70
2023-03-04T02:29:02.788Z,7.70
2023-03-04T02:31:39.456Z,7.80
2023-03-04T02:34:09.934Z,7.80
2023-03-04T02:36:37.261Z,7.70
2023-03-04T02:39:27.456Z,7.70
2023-03-04T02:41:54.838Z,7.70
2023-03-04T02:44:29.558Z,7.60
2023-03-04T02:46:56.867Z,7.60
2023-03-04T02:49:24.791Z,7.70
2023-03-04T02:51:59.501Z,7.60
2023-03-04T02:54:26.650Z,7.60
2023-03-04T02:56:54.594Z,7.60
2023-03-04T02:59:22.471Z,7.50
2023-03-04T03:01:50.063Z,7.50
2023-03-04T03:04:17.394Z,7.50
2023-03-04T03:06:44.556Z,7.50
2023-03-04T03:09:11.525Z,7.50
2023-03-04T03:11:38.536Z,7.50
2023-03-04T03:14:05.504Z,7.50
2023-03-04T03:16:32.621Z,7.40
2023-03-04T03:18:59.489Z,7.50
2023-03-04T03:21:28.981Z,7.40
2023-03-04T03:23:56.114Z,7.40
2023-03-04T03:26:23.258Z,7.40
2023-03-04T03:28:50.210Z,7.40
2023-03-04T03:31:17.213Z,7.50
2023-03-04T03:33:44.193Z,7.40
2023-03-04T03:36:11.189Z,7.50
2023-03-04T03:38:38.287Z,7.50
2023-03-04T03:41:05.348Z,7.50
2023-03-04T03:43:32.284Z,7.50
2023-03-04T03:45:59.306Z,7.50
2023-03-04T03:48:26.479Z,7.40
2023-03-04T03:50:53.445Z,7.40
2023-03-04T03:53:20.478Z,7.50
2023-03-04T03:55:47.340Z,7.50
2023-03-04T03:58:14.682Z,7.40
2023-03-04T04:00:41.610Z,7.40
2023-03-04T04:03:09.443Z,7.40
2023-03-04T04:05:36.426Z,7.40
2023-03-04T04:08:03.368Z,7.40
2023-03-04T04:10:30.300Z,7.40
2023-03-04T04:12:57.254Z,7.40
2023-03-04T04:15:24.648Z,7.30
2023-03-04T04:17:51.508Z,7.40
2023-03-04T04:20:18.457Z,7.40
2023-03-04T04:22:45.332Z,7.30
2023-03-04T04:25:12.278Z,7.30
2023-03-04T04:27:39.237Z,7.30
2023-03-04T04:30:06.807Z,7.30
2023-03-04T04:32:33.832Z,7.30
2023-03-04T04:35:00.776Z,7.30
2023-03-04T04:37:28.145Z,7.30
2023-03-04T04:39:55.780Z,7.30
2023-03-04T04:42:22.922Z,7.30
2023-03-04T04:44:49.849Z,7.30
2023-03-04T04:47:16.819Z,7.40
2023-03-04T04:49:45.086Z,7.40
2023-03-04T04:52:12.211Z,7.40
2023-03-04T04:54:39.131Z,7.30
2023-03-04T04:57:09.096Z,7.30
2023-03-04T04:59:35.974Z,7.20
2023-03-04T05:02:02.885Z,7.20
2023-03-04T05:04:29.746Z,7.30
2023-03-04T05:06:56.990Z,7.30
2023-03-04T05:09:23.952Z,7.30
2023-03-04T05:11:50.873Z,7.30
2023-03-04T05:14:18.022Z,7.30
2023-03-04T05:16:44.895Z,7.30
2023-03-04T05:19:11.894Z,7.30
2023-03-04T05:21:38.795Z,7.30
2023-03-04T05:24:06.030Z,7.30
2023-03-04T05:26:32.959Z,7.30
2023-03-04T05:28:59.907Z,7.30
2023-03-04T05:31:26.898Z,7.40
2023-03-04T05:33:54.026Z,7.40
2023-03-04T05:36:21.246Z,7.30
2023-03-04T05:38:48.182Z,7.30
2023-03-04T05:41:15.142Z,7.30
2023-03-04T05:43:44.959Z,7.40
2023-03-04T05:46:17.484Z,7.40
2023-03-04T05:48:48.089Z,7.40
2023-03-04T05:51:15.102Z,7.40
2023-03-04T05:53:42.030Z,7.40
2023-03-04T05:56:09.919Z,7.40
2023-03-04T05:58:36.982Z,7.40
2023-03-04T06:01:04.106Z,7.40
2023-03-04T06:03:31.074Z,7.40
2023-03-04T06:05:58.402Z,7.40
2023-03-04T06:08:26.188Z,7.50
2023-03-04T06:10:54.668Z,7.40
2023-03-04T06:13:21.999Z,7.40
2023-03-04T06:15:54.024Z,7.40
2023-03-04T06:18:20.972Z,7.30
2023-03-04T06:20:48.057Z,7.30
2023-03-04T06:23:14.992Z,7.30
2023-03-04T06:25:42.253Z,7.30
2023-03-04T06:28:09.192Z,7.30
2023-03-04T06:30:36.268Z,7.30
2023-03-04T06:33:06.088Z,7.30
2023-03-04T06:35:33.337Z,7.30
2023-03-04T06:38:00.256Z,7.30
2023-03-04T06:40:27.531Z,7.30
2023-03-04T06:42:54.440Z,7.30
2023-03-04T06:45:21.518Z,7.30
2023-03-04T06:47:48.540Z,7.20
2023-03-04T06:50:15.507Z,7.30
2023-03-04T06:52:42.526Z,7.30
2023-03-04T06:55:09.910Z,7.30
2023-03-04T06:57:37.178Z,7.30
2023-03-04T07:00:04.222Z,7.30
2023-03-04T07:02:31.322Z,7.30
2023-03-04T07:04:58.280Z,7.30
2023-03-04T07:07:26.573Z,7.30
2023-03-04T07:09:54.028Z,7.30
2023-03-04T07:12:20.939Z,7.40
2023-03-04T07:14:47.800Z,7.40
2023-03-04T07:17:14.780Z,7.40
2023-03-04T07:19:42.133Z,7.30
2023-03-04T07:22:09.172Z,7.30
2023-03-04T07:24:36.084Z,7.30
2023-03-04T07:27:02.960Z,7.30
2023-03-04T07:29:29.834Z,7.30
2023-03-04T07:31:56.983Z,7.40
2023-03-04T07:34:23.947Z,7.30
2023-03-04T07:36:50.904Z,7.30
2023-03-04T07:39:17.852Z,7.30
2023-03-04T07:41:44.792Z,7.30
2023-03-04T07:44:13.464Z,7.30
2023-03-04T07:46:40.733Z,7.40
2023-03-04T07:49:07.853Z,7.40
2023-03-04T07:51:35.234Z,7.40
2023-03-04T07:54:02.244Z,7.40
2023-03-04T07:56:32.089Z,7.50
2023-03-04T07:58:59.452Z,7.50
2023-03-04T08:01:30.600Z,7.40
2023-03-04T08:03:57.857Z,7.40
2023-03-04T08:06:26.076Z,7.40
2023-03-04T08:09:00.127Z,7.30
2023-03-04T08:11:27.858Z,7.30
2023-03-04T08:13:54.834Z,7.30
2023-03-04T08:16:22.507Z,7.40
2023-03-04T08:18:50.930Z,7.40
2023-03-04T08:21:19.663Z,7.50
2023-03-04T08:23:47.198Z,7.50
2023-03-04T08:26:25.183Z,7.50
2023-03-04T08:28:52.403Z,7.50
2023-03-04T08:31:19.597Z,7.60
2023-03-04T08:33:47.138Z,7.60
2023-03-04T08:36:14.598Z,7.60
2023-03-04T08:38:41.486Z,7.60
2023-03-04T08:41:08.387Z,7.60
2023-03-04T08:43:35.525Z,7.60
2023-03-04T08:46:03.020Z,7.60
2023-03-04T08:48:30.066Z,7.60
2023-03-04T08:50:57.058Z,7.70
2023-03-04T08:53:24.187Z,7.70
2023-03-04T08:55:51.509Z,7.70
2023-03-04T08:58:18.784Z,7.70
2023-03-04T09:00:48.558Z,7.80
2023-03-04T09:03:16.226Z,7.80
2023-03-04T09:05:44.930Z,7.80
2023-03-04T09:08:15.012Z,7.80
2023-03-04T09:10:41.923Z,7.90
2023-03-04T09:13:11.497Z,7.90
2023-03-04T09:15:38.928Z,7.80
2023-03-04T09:18:06.099Z,7.80
2023-03-04T09:20:33.121Z,7.80
2023-03-04T09:23:00.328Z,7.90
2023-03-04T09:25:27.336Z,7.90
2023-03-04T09:27:54.792Z,7.90
2023-03-04T09:30:22.002Z,7.90
2023-03-04T09:32:48.862Z,7.80
2023-03-04T09:35:15.758Z,7.90
2023-03-04T09:37:42.642Z,7.90
2023-03-04T09:40:10.049Z,7.90
2023-03-04T09:42:38.360Z,8.00
2023-03-04T09:45:06.148Z,8.00
2023-03-04T09:47:34.771Z,8.10
2023-03-04T09:50:03.377Z,8.10
2023-03-04T09:52:39.834Z,8.20
2023-03-04T09:55:20.483Z,8.20
2023-03-04T09:57:58.572Z,8.20
2023-03-04T10:00:31.156Z,8.30
2023-03-04T10:03:10.789Z,8.30
2023-03-04T10:05:49.830Z,8.40
2023-03-04T10:08:35.311Z,8.40
2023-03-04T10:11:03.709Z,8.40
2023-03-04T10:14:00.158Z,8.40
2023-03-04T10:16:31.902Z,8.50
2023-03-04T10:18:58.756Z,8.60
2023-03-04T10:21:38.057Z,8.60
2023-03-04T10:24:18.294Z,8.70
2023-03-04T10:26:46.781Z,8.70
2023-03-04T10:29:15.781Z,8.80
2023-03-04T10:31:44.008Z,8.80
2023-03-04T10:34:12.048Z,8.90
2023-03-04T10:36:50.264Z,8.90
2023-03-04T10:39:19.562Z,9.00
2023-03-04T10:41:54.421Z,9.00
2023-03-04T10:44:21.373Z,9.10
2023-03-04T10:46:49.163Z,9.20
2023-03-04T10:49:17.791Z,9.20
2023-03-04T10:51:50.482Z,9.30
2023-03-04T10:54:24.476Z,9.30
2023-03-04T10:56:56.179Z,9.50
2023-03-04T10:59:41.916Z,9.50
2023-03-04T11:02:14.989Z,9.50
2023-03-04T11:04:41.929Z,9.60
2023-03-04T11:07:10.372Z,9.70
2023-03-04T11:09:37.756Z,9.80
2023-03-04T11:12:09.958Z,9.90
2023-03-04T11:14:38.755Z,10.00
2023-03-04T11:17:26.166Z,10.00
2023-03-04T11:20:08.816Z,10.00
2023-03-04T11:22:35.913Z,10.10
2023-03-04T11:25:05.503Z,10.20
2023-03-04T11:27:42.276Z,10.20
2023-03-04T11:30:28.063Z,10.30
2023-03-04T11:32:57.574Z,10.30
2023-03-04T11:35:30.281Z,10.30
2023-03-04T11:38:15.318Z,10.30
2023-03-04T11:40:49.234Z,10.30
2023-03-04T11:43:36.571Z,10.30
2023-03-04T11:46:06.835Z,10.20
2023-03-04T11:48:49.094Z,10.20
2023-03-04T11:51:22.388Z,10.20
2023-03-04T11:53:49.756Z,10.10
2023-03-04T11:56:35.702Z,10.00
2023-03-04T11:59:14.256Z,10.00
2023-03-04T12:01:44.217Z,9.90
2023-03-04T12:04:29.654Z,9.90
2023-03-04T12:06:56.629Z,9.90
2023-03-04T12:09:26.596Z,10.00
2023-03-04T12:12:17.182Z,10.00
2023-03-04T12:14:49.276Z,9.90
2023-03-04T12:17:19.271Z,9.80
2023-03-04T12:20:02.137Z,9.80
2023-03-04T12:22:38.470Z,9.80
2023-03-04T12:25:08.759Z,9.90
2023-03-04T12:27:40.647Z,10.10
2023-03-04T12:30:26.126Z,10.10
2023-03-04T12:32:53.167Z,10.20
2023-03-04T12:35:22.912Z,10.30
2023-03-04T12:37:58.654Z,10.30
2023-03-04T12:40:49.325Z,10.30
2023-03-04T12:43:22.309Z,10.30
2023-03-04T12:45:49.254Z,10.20
2023-03-04T12:48:52.037Z,10.10
2023-03-04T12:51:24.946Z,10.00
2023-03-04T12:53:54.811Z,10.00
2023-03-04T12:56:54.146Z,9.90
2023-03-04T12:59:22.289Z,9.80
2023-03-04T13:01:51.811Z,9.80
2023-03-04T13:04:18.770Z,9.80
2023-03-04T13:07:08.645Z,9.80
2023-03-04T13:09:55.999Z,9.80
2023-03-04T13:12:24.025Z,9.90
2023-03-04T13:15:13.982Z,9.90
2023-03-04T13:17:44.080Z,9.90
2023-03-04T13:20:29.861Z,9.90
2023-03-04T13:22:58.249Z,9.90
2023-03-04T13:25:28.219Z,9.90
2023-03-04T13:28:10.465Z,10.00
2023-03-04T13:30:40.057Z,10.00
2023-03-04T13:33:09.838Z,10.10
2023-03-04T13:35:46.013Z,10.10
2023-03-04T13:38:24.690Z,10.20
2023-03-04T13:41:00.576Z,10.30
2023-03-04T13:43:36.929Z,10.30
2023-03-04T13:46:36.379Z,10.30
2023-03-04T13:49:05.230Z,10.30
2023-03-04T13:51:32.100Z,10.30
2023-03-04T13:53:59.027Z,10.40
2023-03-04T13:56:36.554Z,10.40
2023-03-04T13:59:22.746Z,10.40
2023-03-04T14:01:52.698Z,10.50
2023-03-04T14:04:26.798Z,10.50
2023-03-04T14:06:54.596Z,10.50
2023-03-04T14:09:21.981Z,10.50
2023-03-04T14:11:49.942Z,10.50
2023-03-04T14:14:18.821Z,10.50
2023-03-04T14:16:48.993Z,10.40
2023-03-04T14:19:24.489Z,10.40
2023-03-04T14:21:51.502Z,10.40
2023-03-04T14:24:19.710Z,10.30
2023-03-04T14:26:46.950Z,10.30
2023-03-04T14:29:29.661Z,10.30
2023-03-04T14:31:57.727Z,10.20
2023-03-04T14:34:26.762Z,10.20
2023-03-04T14:36:53.690Z,10.20
2023-03-04T14:39:22.847Z,10.10
2023-03-04T14:41:50.634Z,10.10
2023-03-04T14:44:26.800Z,10.10
2023-03-04T14:47:08.154Z,10.10
2023-03-04T14:49:39.733Z,10.20
2023-03-04T14:52:06.935Z,10.10
2023-03-04T14:54:35.804Z,10.10
2023-03-04T14:57:24.242Z,10.10
2023-03-04T14:59:51.672Z,10.00
2023-03-04T15:02:30.664Z,10.00
2023-03-04T15:05:01.945Z,10.00
2023-03-04T15:07:31.910Z,10.00
2023-03-04T15:09:59.096Z,10.00
2023-03-04T15:12:30.356Z,10.00
2023-03-04T15:14:58.834Z,10.00
2023-03-04T15:17:28.970Z,9.90
2023-03-04T15:20:04.221Z,9.90
2023-03-04T15:22:31.327Z,9.90
2023-03-04T15:24:58.447Z,9.80
2023-03-04T15:27:26.749Z,9.80
2023-03-04T15:29:59.465Z,9.80
2023-03-04T15:32:27.617Z,9.80
2023-03-04T15:34:54.877Z,9.70
2023-03-04T15:37:23.554Z,9.70
2023-03-04T15:39:50.783Z,9.80
2023-03-04T15:42:18.242Z,9.70
2023-03-04T15:44:45.344Z,9.70
2023-03-04T15:47:14.072Z,9.70
2023-03-04T15:49:41.988Z,9.70
2023-03-04T15:52:21.314Z,9.70
2023-03-04T15:54:48.752Z,9.70
2023-03-04T15:57:25.715Z,9.80
2023-03-04T15:59:52.902Z,9.80
2023-03-04T16:02:21.275Z,10.00
2023-03-04T16:04:48.324Z,9.90
2023-03-04T16:07:18.809Z,9.90
2023-03-04T16:09:46.788Z,9.80
2023-03-04T16:12:14.059Z,9.80
2023-03-04T16:14:42.116Z,9.80
2023-03-04T16:17:09.567Z,9.80
2023-03-04T16:19:36.512Z,9.70
2023-03-04T16:22:03.590Z,9.80
2023-03-04T16:26:58.866Z,9.80
2023-03-04T16:29:25.947Z,9.80
2023-03-04T16:31:54.432Z,9.80
2023-03-04T16:34:21.343Z,9.80
2023-03-04T16:36:48.470Z,9.80
2023-03-04T16:39:20.106Z,9.80
2023-03-04T16:41:46.963Z,9.80
2023-03-04T16:44:14.384Z,9.80
2023-03-04T16:46:41.869Z,9.80
2023-03-04T16:49:08.888Z,9.80
2023-03-04T16:51:39.937Z,9.80
2023-03-04T16:54:08.402Z,9.70
2023-03-04T16:56:35.226Z,9.70
2023-03-04T16:59:02.454Z,9.70
2023-03-04T17:01:29.486Z,9.70
2023-03-04T17:03:56.463Z,9.70
2023-03-04T17:06:23.640Z,9.70
2023-03-04T17:08:50.639Z,9.70
2023-03-04T17:11:21.492Z,9.60
2023-03-04T17:13:48.953Z,9.60
2023-03-04T17:16:16.139Z,9.60
2023-03-04T17:18:44.470Z,9.60
2023-03-04T17:21:13.030Z,9.50
2023-03-04T17:23:39.992Z,9.50
2023-03-04T17:26:06.987Z,9.50
2023-03-04T17:28:34.195Z,9.40
2023-03-04T17:31:01.853Z,9.40
2023-03-04T17:33:28.993Z,9.40
2023-03-04T17:35:57.251Z,9.40
2023-03-04T17:38:24.234Z,9.40
2023-03-04T17:40:51.199Z,9.40
2023-03-04T17:43:18.177Z,9.30
2023-03-04T17:45:45.066Z,9.30
2023-03-04T17:48:15.566Z,9.30
2023-03-04T17:50:52.354Z,9.40
2023-03-04T17:53:22.013Z,9.30
2023-03-04T17:55:49.894Z,9.30
2023-03-04T17:58:17.014Z,9.20
2023-03-04T18:00:43.840Z,9.20
2023-03-04T18:03:14.750Z,9.20
2023-03-04T18:05:42.046Z,9.20
2023-03-04T18:08:08.941Z,9.20
2023-03-04T18:10:36.012Z,9.20
2023-03-04T18:13:03.222Z,9.10
2023-03-04T18:15:30.401Z,9.10
2023-03-04T18:17:57.276Z,9.10
2023-03-04T18:20:24.229Z,9.10
2023-03-04T18:22:51.403Z,9.00
2023-03-04T18:25:18.394Z,9.00
2023-03-04T18:27:45.431Z,9.00
2023-03-04T18:30:13.857Z,9.00
2023-03-04T18:32:51.796Z,8.90
2023-03-04T18:35:19.972Z,8.90
2023-03-04T18:37:47.102Z,8.90
2023-03-04T18:40:14.288Z,8.80
2023-03-04T18:42:44.315Z,8.80
2023-03-04T18:45:13.203Z,8.80
2023-03-04T18:47:43.920Z,8.80
2023-03-04T18:50:11.185Z,8.70
2023-03-04T18:52:38.293Z,8.70
2023-03-04T18:55:05.372Z,8.70
2023-03-04T18:57:32.831Z,8.70
2023-03-04T19:00:02.222Z,8.70
2023-03-04T19:02:44.122Z,8.70
2023-03-04T19:05:14.688Z,8.70
2023-03-04T19:07:41.545Z,8.70
2023-03-04T19:10:09.381Z,8.70
2023-03-04T19:12:40.366Z,8.60
2023-03-04T19:15:08.787Z,8.60
2023-03-04T19:17:36.183Z,8.50
2023-03-04T19:20:07.059Z,8.50
2023-03-04T19:22:34.293Z,8.50
2023-03-04T19:25:04.519Z,8.50
2023-03-04T19:27:31.509Z,8.50
2023-03-04T19:29:58.707Z,8.50
2023-03-04T19:32:26.349Z,8.50
2023-03-04T19:34:53.264Z,8.40
2023-03-04T19:37:20.654Z,8.50
2023-03-04T19:39:49.307Z,8.50
2023-03-04T19:42:16.607Z,8.40
2023-03-04T19:44:45.151Z,8.40
2023-03-04T19:47:12.280Z,8.40
2023-03-04T19:49:39.133Z,8.40
2023-03-04T19:52:06.136Z,8.40
2023-03-04T19:54:33.207Z,8.40
2023-03-04T19:57:00.120Z,8.40
2023-03-04T19:59:27.015Z,8.40
2023-03-04T20:01:56.613Z,8.40
2023-03-04T20:04:23.541Z,8.40
2023-03-04T20:06:51.119Z,8.30
2023-03-04T20:09:18.701Z,8.30
2023-03-04T20:11:57.268Z,8.30
2023-03-04T20:14:26.362Z,8.30
2023-03-04T20:16:53.296Z,8.30
2023-03-04T20:19:20.260Z,8.30
2023-03-04T20:21:47.108Z,8.20
2023-03-04T20:24:15.235Z,8.20
2023-03-04T20:26:42.188Z,8.30
2023-03-04T20:29:09.118Z,8.20
2023-03-04T20:31:37.609Z,8.20
2023-03-04T20:34:05.142Z,8.20
2023-03-04T20:36:32.210Z,8.20
2023-03-04T20:39:05.284Z,8.20
2023-03-04T20:41:35.203Z,8.20
2023-03-04T20:44:02.091Z,8.20
2023-03-04T20:46:41.505Z,8.20
2023-03-04T20:49:24.641Z,8.20
2023-03-04T20:51:56.258Z,8.20
2023-03-04T20:54:23.117Z,8.20
2023-03-04T20:56:50.252Z,8.10
2023-03-04T20:59:20.896Z,8.10
2023-03-04T21:01:48.557Z,8.10
2023-03-04T21:04:15.930Z,8.10
2023-03-04T21:06:43.825Z,8.00
2023-03-04T21:09:14.972Z,8.00
2023-03-04T21:11:42.314Z,8.00
2023-03-04T21:14:16.677Z,8.00
2023-03-04T21:16:43.656Z,7.90
2023-03-04T21:19:19.130Z,8.00
2023-03-04T21:21:47.055Z,8.00
2023-03-04T21:24:15.982Z,7.90
2023-03-04T21:26:47.816Z,7.90
2023-03-04T21:29:15.884Z,7.90
2023-03-04T21:31:45.168Z,7.90
2023-03-04T21:34:16.926Z,7.90
2023-03-04T21:36:43.919Z,7.90
2023-03-04T21:39:18.840Z,7.80
2023-03-04T21:41:46.576Z,7.80
2023-03-04T21:44:22.752Z,7.80
2023-03-04T21:46:58.830Z,7.80
2023-03-04T21:49:26.613Z,7.80
2023-03-04T21:51:53.622Z,7.70
2023-03-04T21:54:20.574Z,7.60
2023-03-04T21:59:28.389Z,7.60
2023-03-04T22:01:55.447Z,7.60
2023-03-04T22:04:22.337Z,7.60
2023-03-04T22:06:49.224Z,7.60
2023-03-04T22:09:16.420Z,7.60
2023-03-04T22:11:43.331Z,7.60
2023-03-04T22:14:10.539Z,7.60
2023-03-04T22:16:48.812Z,7.60
2023-03-04T22:19:19.795Z,7.60
2023-03-04T22:21:46.827Z,7.60
2023-03-04T22:24:13.772Z,7.60
2023-03-04T22:26:41.268Z,7.60
2023-03-04T22:29:08.307Z,7.50
2023-03-04T22:31:36.177Z,7.50
2023-03-04T22:34:03.124Z,7.50
2023-03-04T22:36:30.790Z,7.50
2023-03-04T22:38:57.762Z,7.50
2023-03-04T22:41:24.856Z,7.50
2023-03-04T22:43:51.728Z,7.50
2023-03-04T22:46:21.371Z,7.40
2023-03-04T22:48:48.984Z,7.40
2023-03-04T22:51:16.168Z,7.40
2023-03-04T22:53:43.688Z,7.40
2023-03-04T22:56:12.687Z,7.40
2023-03-04T22:58:40.345Z,7.40
2023-03-04T23:01:07.824Z,7.40
2023-03-04T23:03:35.720Z,7.30
2023-03-04T23:06:11.761Z,7.30
2023-03-04T23:08:39.999Z,7.30
2023-03-04T23:11:14.799Z,7.30
2023-03-04T23:13:41.780Z,7.20
2023-03-04T23:16:10.437Z,7.30
2023-03-04T23:18:38.326Z,7.30
2023-03-04T23:21:06.305Z,7.30
2023-03-04T23:23:33.572Z,7.20
2023-03-04T23:26:01.773Z,7.20
2023-03-04T23:28:28.735Z,7.20
2023-03-04T23:30:55.960Z,7.20
2023-03-04T23:33:22.908Z,7.30
2023-03-04T23:35:49.835Z,7.20
2023-03-04T23:38:16.857Z,7.20
2023-03-04T23:40:44.054Z,7.20
2023-03-04T23:43:10.950Z,7.20
2023-03-04T23:45:37.918Z,7.20
2023-03-04T23:48:04.942Z,7.20
2023-03-04T23:50:32.411Z,7.20
2023-03-04T23:52:59.302Z,7.20
2023-03-04T23:55:26.252Z,7.20
2023-03-04T23:57:53.090Z,7.20
